createdAt,value
2018-07-28T00:00:49.033Z,46.16
2018-07-28T00:01:49.035Z,46.16
2018-07-28T00:02:49.151Z,46.41
2018-07-28T00:03:49.071Z,46.23
2018-07-28T00:04:49.121Z,46.15
2018-07-28T00:05:49.074Z,46.37
2018-07-28T00:06:49.030Z,46.12
2018-07-28T00:07:49.092Z,46.38
2018-07-28T00:08:49.064Z,46.09
2018-07-28T00:09:49.063Z,45.88
2018-07-28T00:10:49.043Z,46.14
2018-07-28T00:11:49.024Z,46.29
2018-07-28T00:12:49.010Z,46.11
2018-07-28T00:13:49.161Z,45.88
2018-07-28T00:14:49.018Z,45.92
2018-07-28T00:15:49.039Z,46.62
2018-07-28T00:16:49.368Z,46.11
2018-07-28T00:17:49.168Z,46.52
2018-07-28T00:18:49.007Z,46.28
2018-07-28T00:19:49.009Z,46.5
2018-07-28T00:20:49.074Z,46.49
2018-07-28T00:21:49.020Z,46.36
2018-07-28T00:22:49.009Z,46.56
2018-07-28T00:23:49.026Z,46.7
2018-07-28T00:24:49.458Z,46.73
2018-07-28T00:25:49.027Z,46.57
2018-07-28T00:26:48.997Z,47.14
2018-07-28T00:27:49.121Z,46.96
2018-07-28T00:28:49.007Z,47.12
2018-07-28T00:29:49.012Z,46.78
2018-07-28T00:30:48.996Z,46.83
2018-07-28T00:31:48.999Z,47.04
2018-07-28T00:32:49.094Z,46.46
2018-07-28T00:33:49.023Z,46.71
2018-07-28T00:34:49.015Z,47.03
2018-07-28T00:35:49.513Z,46.89
2018-07-28T00:36:49.008Z,47.08
2018-07-28T00:37:49.077Z,46.74
2018-07-28T00:38:49.043Z,46.83
2018-07-28T00:39:49.029Z,46.88
2018-07-28T00:40:49.147Z,47.14
2018-07-28T00:41:49.183Z,46.95
2018-07-28T00:42:49.028Z,47.17
2018-07-28T00:43:49.054Z,46.93
2018-07-28T00:44:48.999Z,47.16
2018-07-28T00:45:49.015Z,47.09
2018-07-28T00:46:49.001Z,47.17
2018-07-28T00:47:49.003Z,47.37
2018-07-28T00:48:49.050Z,47.19
2018-07-28T00:49:49.017Z,47.13
2018-07-28T00:50:49.026Z,47.26
2018-07-28T00:51:49.020Z,47.4
2018-07-28T00:52:49.021Z,47.01
2018-07-28T00:53:49.201Z,47.44
2018-07-28T00:54:48.994Z,47.32
2018-07-28T00:55:49.002Z,47.46
2018-07-28T00:56:49.004Z,47.12
2018-07-28T00:57:49.012Z,47.46
2018-07-28T00:58:49.015Z,47.23
2018-07-28T00:59:49.021Z,47.52
2018-07-28T01:00:49.029Z,47.53
2018-07-28T01:01:49.197Z,47.64
2018-07-28T01:02:49.009Z,47.64
2018-07-28T01:03:49.021Z,47.62
2018-07-28T01:04:49.018Z,47.55
2018-07-28T01:05:49.035Z,47.47
2018-07-28T01:06:49.035Z,47.66
2018-07-28T01:07:49.011Z,47.89
2018-07-28T01:08:49.028Z,48.17
2018-07-28T01:09:49.081Z,48.03
2018-07-28T01:10:49.005Z,47.9
2018-07-28T01:11:48.991Z,48.23
2018-07-28T01:12:49.362Z,47.94
2018-07-28T01:13:48.983Z,48.06
2018-07-28T01:14:49.067Z,48.18
2018-07-28T01:15:49.111Z,48.08
2018-07-28T01:16:48.981Z,47.94
2018-07-28T01:17:49.001Z,48.1
2018-07-28T01:18:49.020Z,47.91
2018-07-28T01:19:49.027Z,48.22
2018-07-28T01:20:49.034Z,47.95
2018-07-28T01:21:49.028Z,48.22
2018-07-28T01:22:49.069Z,48.41
2018-07-28T01:23:48.995Z,48.18
2018-07-28T01:24:49.039Z,48.02
2018-07-28T01:25:49.000Z,48.36
2018-07-28T01:26:48.989Z,48.4
2018-07-28T01:27:49.052Z,48.49
2018-07-28T01:28:49.011Z,48.38
2018-07-28T01:29:49.219Z,48.1
2018-07-28T01:30:49.072Z,48.49
2018-07-28T01:31:49.008Z,48.48
2018-07-28T01:32:49.042Z,48.58
2018-07-28T01:33:49.194Z,48.4
2018-07-28T01:34:48.996Z,48.46
2018-07-28T01:35:48.992Z,48.55
2018-07-28T01:36:49.062Z,48.21
2018-07-28T01:37:48.998Z,48.27
2018-07-28T01:38:49.043Z,48.17
2018-07-28T01:39:48.983Z,48.46
2018-07-28T01:40:49.041Z,48.47
2018-07-28T01:41:49.012Z,48.35
2018-07-28T01:42:49.033Z,48.55
2018-07-28T01:43:49.040Z,48.44
2018-07-28T01:44:48.997Z,48.44
2018-07-28T01:45:49.000Z,48.61
2018-07-28T01:46:49.081Z,48.61
2018-07-28T01:47:49.120Z,48.55
2018-07-28T01:48:49.051Z,48.7
2018-07-28T01:49:49.035Z,48.52
2018-07-28T01:50:49.007Z,48.47
2018-07-28T01:51:49.016Z,48.56
2018-07-28T01:52:48.992Z,48.81
2018-07-28T01:53:49.024Z,48.77
2018-07-28T01:54:48.989Z,48.78
2018-07-28T01:55:48.999Z,48.71
2018-07-28T01:56:48.996Z,48.86
2018-07-28T01:57:49.008Z,48.84
2018-07-28T01:58:49.016Z,48.9
2018-07-28T01:59:49.596Z,48.54
2018-07-28T02:00:49.000Z,48.82
2018-07-28T02:01:48.996Z,48.47
2018-07-28T02:02:49.024Z,48.86
2018-07-28T02:03:49.050Z,49.03
2018-07-28T02:04:49.018Z,48.88
2018-07-28T02:05:49.005Z,48.7
2018-07-28T02:06:49.005Z,49
2018-07-28T02:07:49.009Z,49.04
2018-07-28T02:08:49.016Z,49.01
2018-07-28T02:09:48.995Z,49.14
2018-07-28T02:10:49.649Z,48.97
2018-07-28T02:11:48.997Z,49.01
2018-07-28T02:12:49.011Z,48.98
2018-07-28T02:13:49.016Z,49
2018-07-28T02:14:49.033Z,49.02
2018-07-28T02:15:49.007Z,49.01
2018-07-28T02:16:48.998Z,49.41
2018-07-28T02:17:49.030Z,49.23
2018-07-28T02:18:49.013Z,49.31
2018-07-28T02:19:49.156Z,49.2
2018-07-28T02:20:49.038Z,49.44
2018-07-28T02:21:49.053Z,49.44
2018-07-28T02:22:49.030Z,49.35
2018-07-28T02:23:49.036Z,49.42
2018-07-28T02:24:49.014Z,49.4
2018-07-28T02:25:49.047Z,49.51
2018-07-28T02:26:48.993Z,49.39
2018-07-28T02:27:49.007Z,49.41
2018-07-28T02:28:49.206Z,49.56
2018-07-28T02:29:49.032Z,49.12
2018-07-28T02:30:49.306Z,49.55
2018-07-28T02:31:49.076Z,49.64
2018-07-28T02:32:49.011Z,49.48
2018-07-28T02:33:49.049Z,49.7
2018-07-28T02:34:48.997Z,49.74
2018-07-28T02:35:49.125Z,49.69
2018-07-28T02:36:49.196Z,49.68
2018-07-28T02:37:48.981Z,49.76
2018-07-28T02:38:49.014Z,49.74
2018-07-28T02:39:49.186Z,49.52
2018-07-28T02:40:48.997Z,49.82
2018-07-28T02:41:49.003Z,49.56
2018-07-28T02:42:49.018Z,50.03
2018-07-28T02:43:49.002Z,49.94
2018-07-28T02:44:49.063Z,50.23
2018-07-28T02:45:49.032Z,50.15
2018-07-28T02:46:49.028Z,50.35
2018-07-28T02:47:49.041Z,50.26
2018-07-28T02:48:49.160Z,50.28
2018-07-28T02:49:49.042Z,50.07
2018-07-28T02:50:49.343Z,50.24
2018-07-28T02:51:49.022Z,50.48
2018-07-28T02:52:49.050Z,50.37
2018-07-28T02:53:49.036Z,50.63
2018-07-28T02:54:49.027Z,50.6
2018-07-28T02:55:49.034Z,50.56
2018-07-28T02:56:48.990Z,50.42
2018-07-28T02:57:49.031Z,50.39
2018-07-28T02:58:49.178Z,50.4
2018-07-28T02:59:49.081Z,50.74
2018-07-28T03:00:48.995Z,50.78
2018-07-28T03:01:49.014Z,50.74
2018-07-28T03:02:49.381Z,50.66
2018-07-28T03:03:49.035Z,50.62
2018-07-28T03:04:49.016Z,50.82
2018-07-28T03:05:49.147Z,50.78
2018-07-28T03:06:49.022Z,50.89
2018-07-28T03:07:49.044Z,50.74
2018-07-28T03:08:49.169Z,50.99
2018-07-28T03:09:49.018Z,50.42
2018-07-28T03:10:49.030Z,50.99
2018-07-28T03:11:49.107Z,51.04
2018-07-28T03:12:49.481Z,50.69
2018-07-28T03:13:48.995Z,50.64
2018-07-28T03:14:49.018Z,51.09
2018-07-28T03:15:48.982Z,50.72
2018-07-28T03:16:48.993Z,50.93
2018-07-28T03:17:49.008Z,51.09
2018-07-28T03:18:49.059Z,51.31
2018-07-28T03:19:48.972Z,50.92
2018-07-28T03:20:48.996Z,50.73
2018-07-28T03:21:49.024Z,50.84
2018-07-28T03:22:49.000Z,51.42
2018-07-28T03:23:48.977Z,51.18
2018-07-28T03:24:48.985Z,51.27
2018-07-28T03:25:49.002Z,51.29
2018-07-28T03:26:49.057Z,51.09
2018-07-28T03:27:48.989Z,51.01
2018-07-28T03:28:48.968Z,51.31
2018-07-28T03:29:48.969Z,51.48
2018-07-28T03:30:49.011Z,51.13
2018-07-28T03:31:48.990Z,51.17
2018-07-28T03:32:48.985Z,50.86
2018-07-28T03:33:48.982Z,51.28
2018-07-28T03:34:49.005Z,51.46
2018-07-28T03:35:49.021Z,51.35
2018-07-28T03:36:48.989Z,51.6
2018-07-28T03:37:48.991Z,51.97
2018-07-28T03:38:49.010Z,51.75
2018-07-28T03:39:49.003Z,51.93
2018-07-28T03:40:49.009Z,52.4
2018-07-28T03:41:48.970Z,52.28
2018-07-28T03:42:48.981Z,52.3
2018-07-28T03:43:48.992Z,52.16
2018-07-28T03:44:49.023Z,51.89
2018-07-28T03:45:49.237Z,51.67
2018-07-28T03:46:49.022Z,52.05
2018-07-28T03:47:48.995Z,52.56
2018-07-28T03:48:49.035Z,52.29
2018-07-28T03:49:49.000Z,52.58
2018-07-28T03:50:49.123Z,52.4
2018-07-28T03:51:48.973Z,52.32
2018-07-28T03:52:48.977Z,52.81
2018-07-28T03:53:48.971Z,52.65
2018-07-28T03:54:49.003Z,52.73
2018-07-28T03:55:48.953Z,52.47
2018-07-28T03:56:49.150Z,52.79
2018-07-28T03:57:49.054Z,52.6
2018-07-28T03:58:49.011Z,53.26
2018-07-28T03:59:49.074Z,52.84
2018-07-28T04:00:49.090Z,52.96
2018-07-28T04:01:49.017Z,53.1
2018-07-28T04:02:49.043Z,53.25
2018-07-28T04:03:48.978Z,53.55
2018-07-28T04:04:48.982Z,53.04
2018-07-28T04:05:49.020Z,53.5
2018-07-28T04:06:48.951Z,53.51
2018-07-28T04:07:49.035Z,52.96
2018-07-28T04:08:49.002Z,53.27
2018-07-28T04:09:49.354Z,53.33
2018-07-28T04:10:49.006Z,53.15
2018-07-28T04:11:48.972Z,52.78
2018-07-28T04:12:48.964Z,53.15
2018-07-28T04:13:48.990Z,52.95
2018-07-28T04:14:48.998Z,53.8
2018-07-28T04:15:48.995Z,53.39
2018-07-28T04:16:48.993Z,53.98
2018-07-28T04:17:49.003Z,54.13
2018-07-28T04:18:48.988Z,53.71
2018-07-28T04:19:49.030Z,53.23
2018-07-28T04:20:48.983Z,53.11
2018-07-28T04:21:48.966Z,54.39
2018-07-28T04:22:49.005Z,53.44
2018-07-28T04:23:49.143Z,54.04
2018-07-28T04:24:49.008Z,54.27
2018-07-28T04:25:48.990Z,53.91
2018-07-28T04:26:49.082Z,53.44
2018-07-28T04:27:48.965Z,53.86
2018-07-28T04:28:48.981Z,53.94
2018-07-28T04:29:49.041Z,54.33
2018-07-28T04:30:48.967Z,54.51
2018-07-28T04:31:48.952Z,54.21
2018-07-28T04:32:48.982Z,54.2
2018-07-28T04:33:49.099Z,54.31
2018-07-28T04:34:48.967Z,53.99
2018-07-28T04:35:49.114Z,54.38
2018-07-28T04:36:49.001Z,54.13
2018-07-28T04:37:48.999Z,54.37
2018-07-28T04:38:48.958Z,54.36
2018-07-28T04:39:48.955Z,54.7
2018-07-28T04:40:48.972Z,54.71
2018-07-28T04:41:48.990Z,54.61
2018-07-28T04:42:48.960Z,54.71
2018-07-28T04:43:48.969Z,54.31
2018-07-28T04:44:48.972Z,54.83
2018-07-28T04:45:48.969Z,54.35
2018-07-28T04:46:49.004Z,54.58
2018-07-28T04:47:48.958Z,54.72
2018-07-28T04:48:48.954Z,54.74
2018-07-28T04:49:48.968Z,55.21
2018-07-28T04:50:49.127Z,55.35
2018-07-28T04:51:48.973Z,54.92
2018-07-28T04:52:48.981Z,55.43
2018-07-28T04:53:49.076Z,54.93
2018-07-28T04:54:49.052Z,54.95
2018-07-28T04:55:49.114Z,55.05
2018-07-28T04:56:48.952Z,55.14
2018-07-28T04:57:49.332Z,54.57
2018-07-28T04:58:49.283Z,55.45
2018-07-28T04:59:49.168Z,55.02
2018-07-28T05:00:48.997Z,55.1
2018-07-28T05:01:48.954Z,54.76
2018-07-28T05:02:48.967Z,54.62
2018-07-28T05:03:49.032Z,54.92
2018-07-28T05:04:48.995Z,54.77
2018-07-28T05:05:48.966Z,55.05
2018-07-28T05:06:49.216Z,55.07
2018-07-28T05:07:48.943Z,54.85
2018-07-28T05:08:49.149Z,55.08
2018-07-28T05:09:48.951Z,54.76
2018-07-28T05:10:48.974Z,54.76
2018-07-28T05:11:49.060Z,55.38
2018-07-28T05:12:49.143Z,55
2018-07-28T05:13:48.995Z,54.6
2018-07-28T05:14:49.081Z,55.73
2018-07-28T05:15:49.524Z,55.48
2018-07-28T05:16:49.069Z,54.98
2018-07-28T05:17:49.225Z,55.28
2018-07-28T05:18:49.447Z,55.56
2018-07-28T05:19:49.172Z,55.68
2018-07-28T05:20:49.039Z,55.36
2018-07-28T05:21:49.007Z,56.36
2018-07-28T05:22:48.978Z,55.99
2018-07-28T05:23:49.118Z,55.82
2018-07-28T05:24:49.003Z,56.32
2018-07-28T05:25:49.214Z,55.78
2018-07-28T05:26:49.044Z,55.89
2018-07-28T05:27:48.988Z,55.78
2018-07-28T05:28:49.039Z,55.95
2018-07-28T05:29:49.029Z,55.99
2018-07-28T05:30:49.069Z,55.85
2018-07-28T05:31:49.232Z,55.88
2018-07-28T05:32:48.980Z,56.09
2018-07-28T05:33:48.989Z,55.93
2018-07-28T05:34:48.974Z,56.4
2018-07-28T05:35:48.947Z,56.07
2018-07-28T05:36:48.987Z,55.78
2018-07-28T05:37:49.081Z,56.28
2018-07-28T05:38:48.952Z,56.21
2018-07-28T05:39:48.989Z,56.13
2018-07-28T05:40:49.382Z,56.07
2018-07-28T05:41:49.220Z,56.56
2018-07-28T05:42:49.804Z,56.17
2018-07-28T05:43:49.059Z,56.14
2018-07-28T05:44:49.146Z,56.13
2018-07-28T05:45:49.002Z,56.03
2018-07-28T05:46:48.998Z,55.62
2018-07-28T05:47:49.034Z,55.75
2018-07-28T05:48:48.965Z,55.37
2018-07-28T05:49:48.966Z,55.01
2018-07-28T05:50:48.950Z,55.32
2018-07-28T05:51:48.970Z,55.71
2018-07-28T05:52:48.956Z,55.54
2018-07-28T05:53:48.929Z,55.81
2018-07-28T05:54:48.989Z,55.35
2018-07-28T05:55:48.934Z,55.75
2018-07-28T05:56:48.939Z,55.56
2018-07-28T05:57:48.985Z,55.73
2018-07-28T05:58:48.969Z,55.18
2018-07-28T05:59:48.960Z,55
2018-07-28T06:00:48.992Z,55.9
2018-07-28T06:01:48.978Z,55.41
2018-07-28T06:02:49.162Z,55.88
2018-07-28T06:03:48.976Z,55.51
2018-07-28T06:04:48.972Z,55.57
2018-07-28T06:05:48.933Z,55
2018-07-28T06:06:48.931Z,54.84
2018-07-28T06:07:48.983Z,55.34
2018-07-28T06:08:48.935Z,55.83
2018-07-28T06:09:49.019Z,55.7
2018-07-28T06:10:49.228Z,55.29
2018-07-28T06:11:48.928Z,54.89
2018-07-28T06:12:48.998Z,55.04
2018-07-28T06:13:49.085Z,54.96
2018-07-28T06:14:48.990Z,54.93
2018-07-28T06:15:49.423Z,55.25
2018-07-28T06:16:49.019Z,55.11
2018-07-28T06:17:48.950Z,55.41
2018-07-28T06:18:48.955Z,54.92
2018-07-28T06:19:48.993Z,55.29
2018-07-28T06:20:49.049Z,55.15
2018-07-28T06:21:49.212Z,54.83
2018-07-28T06:22:48.993Z,55.61
2018-07-28T06:23:49.018Z,56.04
2018-07-28T06:24:49.098Z,56.28
2018-07-28T06:25:49.159Z,56.74
2018-07-28T06:26:49.029Z,56.55
2018-07-28T06:27:49.060Z,56.4
2018-07-28T06:28:49.054Z,56.59
2018-07-28T06:29:48.989Z,55.8
2018-07-28T06:30:49.013Z,56.3
2018-07-28T06:31:49.437Z,56.46
2018-07-28T06:32:49.049Z,56.34
2018-07-28T06:33:49.236Z,56.33
2018-07-28T06:34:48.994Z,56.73
2018-07-28T06:35:48.970Z,56.62
2018-07-28T06:36:49.025Z,56.89
2018-07-28T06:37:49.118Z,56.76
2018-07-28T06:38:49.049Z,56.89
2018-07-28T06:39:49.039Z,56.87
2018-07-28T06:40:48.948Z,56.87
2018-07-28T06:41:49.003Z,56.49
2018-07-28T06:42:48.945Z,57.01
2018-07-28T06:43:49.006Z,56.91
2018-07-28T06:44:49.105Z,57
2018-07-28T06:45:48.957Z,56.65
2018-07-28T06:46:49.216Z,56.96
2018-07-28T06:47:49.057Z,56.94
2018-07-28T06:48:48.972Z,56.49
2018-07-28T06:49:49.004Z,56.6
2018-07-28T06:50:48.989Z,56.76
2018-07-28T06:51:49.344Z,56.7
2018-07-28T06:52:49.043Z,56.15
2018-07-28T06:53:49.774Z,56.33
2018-07-28T06:54:48.920Z,56.76
2018-07-28T06:55:49.026Z,56.65
2018-07-28T06:56:49.070Z,56.47
2018-07-28T06:57:48.939Z,56.66
2018-07-28T06:58:49.043Z,56.6
2018-07-28T06:59:49.020Z,56.72
2018-07-28T07:00:48.948Z,56.62
2018-07-28T07:01:49.325Z,56.39
2018-07-28T07:02:48.963Z,56.18
2018-07-28T07:03:48.915Z,56.49
2018-07-28T07:04:49.318Z,56.33
2018-07-28T07:05:49.066Z,56.39
2018-07-28T07:06:49.052Z,56.34
2018-07-28T07:07:48.962Z,56.39
2018-07-28T07:08:48.923Z,56.05
2018-07-28T07:09:48.966Z,56.43
2018-07-28T07:10:48.983Z,56.29
2018-07-28T07:11:48.955Z,56.29
2018-07-28T07:12:48.969Z,56.37
2018-07-28T07:13:48.967Z,55.94
2018-07-28T07:14:49.022Z,56.08
2018-07-28T07:15:48.947Z,56.06
2018-07-28T07:16:48.939Z,55.64
2018-07-28T07:17:48.934Z,55.69
2018-07-28T07:18:48.960Z,55.64
2018-07-28T07:19:48.948Z,55.52
2018-07-28T07:20:48.930Z,55.67
2018-07-28T07:21:48.905Z,55.86
2018-07-28T07:22:48.983Z,55.59
2018-07-28T07:23:48.937Z,55.36
2018-07-28T07:24:49.283Z,55.06
2018-07-28T07:25:48.991Z,55.41
2018-07-28T07:26:48.971Z,55.16
2018-07-28T07:27:48.956Z,55.21
2018-07-28T07:28:49.033Z,55.5
2018-07-28T07:29:48.929Z,55.02
2018-07-28T07:30:49.045Z,54.88
2018-07-28T07:31:49.107Z,54.95
2018-07-28T07:32:49.053Z,54.94
2018-07-28T07:33:49.158Z,54.62
2018-07-28T07:34:48.977Z,54.94
2018-07-28T07:35:49.048Z,54.8
2018-07-28T07:36:49.029Z,54.87
2018-07-28T07:37:49.009Z,55.03
2018-07-28T07:38:48.927Z,55.34
2018-07-28T07:39:48.991Z,55.02
2018-07-28T07:40:49.297Z,55.03
2018-07-28T07:41:49.652Z,54.73
2018-07-28T07:42:49.071Z,54.82
2018-07-28T07:43:49.007Z,54.99
2018-07-28T07:44:49.005Z,54.91
2018-07-28T07:45:49.034Z,54.9
2018-07-28T07:46:49.084Z,54.95
2018-07-28T07:47:48.972Z,54.83
2018-07-28T07:48:49.079Z,54.96
2018-07-28T07:49:49.039Z,55.03
2018-07-28T07:50:49.000Z,54.96
2018-07-28T07:51:48.975Z,54.94
2018-07-28T07:52:48.933Z,54.85
2018-07-28T07:53:49.130Z,54.78
2018-07-28T07:54:49.026Z,54.69
2018-07-28T07:55:48.985Z,55.18
2018-07-28T07:56:48.963Z,54.73
2018-07-28T07:57:49.213Z,54.26
2018-07-28T07:58:49.112Z,54.83
2018-07-28T07:59:49.000Z,55.22
2018-07-28T08:00:49.037Z,55.99
2018-07-28T08:01:48.929Z,56.22
2018-07-28T08:02:49.008Z,55.81
2018-07-28T08:03:49.040Z,55.5
2018-07-28T08:04:49.179Z,55.02
2018-07-28T08:05:49.071Z,55.16
2018-07-28T08:06:49.014Z,54.99
2018-07-28T08:07:49.272Z,55.24
2018-07-28T08:08:49.074Z,55.85
2018-07-28T08:09:48.978Z,56.15
2018-07-28T08:10:49.119Z,56.78
2018-07-28T08:11:48.947Z,56.64
2018-07-28T08:12:48.915Z,56.21
2018-07-28T08:13:48.988Z,55.94
2018-07-28T08:14:49.003Z,56.89
2018-07-28T08:15:49.010Z,56.6
2018-07-28T08:16:48.977Z,56.39
2018-07-28T08:17:48.966Z,56.93
2018-07-28T08:18:48.988Z,56.76
2018-07-28T08:19:48.956Z,56.44
2018-07-28T08:20:48.961Z,56.39
2018-07-28T08:21:48.985Z,56.4
2018-07-28T08:22:48.993Z,56.14
2018-07-28T08:23:48.907Z,56.41
2018-07-28T08:24:49.227Z,56.37
2018-07-28T08:25:48.960Z,56.48
2018-07-28T08:26:49.431Z,55.87
2018-07-28T08:27:48.912Z,55.84
2018-07-28T08:28:48.914Z,55.52
2018-07-28T08:29:48.945Z,55.29
2018-07-28T08:30:48.961Z,55.23
2018-07-28T08:31:49.018Z,55.01
2018-07-28T08:32:48.932Z,55.31
2018-07-28T08:33:49.036Z,54.61
2018-07-28T08:34:48.997Z,54.57
2018-07-28T08:35:48.912Z,53.84
2018-07-28T08:36:48.901Z,53.56
2018-07-28T08:37:49.152Z,53.6
2018-07-28T08:38:48.895Z,53.64
2018-07-28T08:39:49.120Z,54.06
2018-07-28T08:40:48.951Z,54.03
2018-07-28T08:41:48.914Z,53.7
2018-07-28T08:42:48.995Z,53.95
2018-07-28T08:43:49.003Z,53.76
2018-07-28T08:44:48.962Z,53.71
2018-07-28T08:45:48.965Z,54.03
2018-07-28T08:46:49.122Z,54.29
2018-07-28T08:47:49.004Z,54.45
2018-07-28T08:48:49.311Z,54.6
2018-07-28T08:49:48.914Z,54.68
2018-07-28T08:50:48.966Z,54.54
2018-07-28T08:51:49.091Z,53.91
2018-07-28T08:52:49.020Z,53.62
2018-07-28T08:53:49.090Z,53.55
2018-07-28T08:54:49.037Z,53.41
2018-07-28T08:55:49.097Z,52.06
2018-07-28T08:56:49.207Z,52.07
2018-07-28T08:57:48.980Z,51.82
2018-07-28T08:58:49.012Z,52
2018-07-28T08:59:49.128Z,51.26
2018-07-28T09:00:49.158Z,50.76
2018-07-28T09:01:48.920Z,50.97
2018-07-28T09:02:49.045Z,50.62
2018-07-28T09:03:49.272Z,50.3
2018-07-28T09:04:49.060Z,50.63
2018-07-28T09:05:49.289Z,50.04
2018-07-28T09:06:49.070Z,50.58
2018-07-28T09:07:49.074Z,51.11
2018-07-28T09:08:48.983Z,50.7
2018-07-28T09:09:49.034Z,51.19
2018-07-28T09:10:48.994Z,51.38
2018-07-28T09:11:48.918Z,51.85
2018-07-28T09:12:49.008Z,51.54
2018-07-28T09:13:49.222Z,51.85
2018-07-28T09:14:49.112Z,52.24
2018-07-28T09:15:49.015Z,52.19
2018-07-28T09:16:49.033Z,50.83
2018-07-28T09:17:49.157Z,50.67
2018-07-28T09:18:48.940Z,50.51
2018-07-28T09:19:48.967Z,49.77
2018-07-28T09:20:48.980Z,50
2018-07-28T09:21:49.068Z,49.79
2018-07-28T09:22:49.077Z,49.67
2018-07-28T09:23:49.083Z,48.64
2018-07-28T09:24:48.948Z,49.23
2018-07-28T09:25:49.019Z,49.04
2018-07-28T09:26:49.169Z,48.54
2018-07-28T09:27:48.954Z,48.64
2018-07-28T09:28:48.915Z,48.36
2018-07-28T09:29:48.977Z,48.45
2018-07-28T09:30:48.987Z,47.76
2018-07-28T09:31:48.921Z,48.1
2018-07-28T09:32:49.042Z,48.13
2018-07-28T09:33:49.069Z,48.44
2018-07-28T09:34:49.070Z,48.43
2018-07-28T09:35:48.916Z,48.75
2018-07-28T09:36:49.272Z,48.38
2018-07-28T09:37:49.471Z,48.5
2018-07-28T09:38:49.024Z,48.97
2018-07-28T09:39:49.090Z,49.14
2018-07-28T09:40:49.094Z,49.53
2018-07-28T09:41:49.209Z,49.59
2018-07-28T09:42:49.135Z,49.03
2018-07-28T09:43:48.913Z,48.84
2018-07-28T09:44:48.964Z,48.74
2018-07-28T09:45:48.950Z,48.81
2018-07-28T09:46:48.931Z,48.74
2018-07-28T09:47:48.958Z,48.58
2018-07-28T09:48:48.943Z,48.79
2018-07-28T09:49:48.981Z,48.47
2018-07-28T09:50:48.941Z,48.03
2018-07-28T09:51:49.169Z,47.89
2018-07-28T09:52:49.073Z,47.79
2018-07-28T09:53:48.895Z,48.13
2018-07-28T09:54:49.053Z,48.06
2018-07-28T09:55:48.945Z,47.34
2018-07-28T09:56:48.906Z,47.11
2018-07-28T09:57:48.960Z,47.38
2018-07-28T09:58:48.910Z,47.58
2018-07-28T09:59:48.898Z,48.03
2018-07-28T10:00:49.131Z,48.1
2018-07-28T10:01:48.916Z,46.87
2018-07-28T10:02:49.146Z,47.05
2018-07-28T10:03:48.887Z,47.19
2018-07-28T10:04:48.965Z,47.54
2018-07-28T10:05:48.943Z,47.66
2018-07-28T10:06:49.175Z,47.39
2018-07-28T10:07:49.116Z,47.23
2018-07-28T10:08:48.915Z,47.22
2018-07-28T10:09:48.923Z,46.22
2018-07-28T10:10:49.088Z,45.9
2018-07-28T10:11:49.204Z,46.28
2018-07-28T10:12:48.996Z,46.7
2018-07-28T10:13:48.978Z,46.06
2018-07-28T10:14:49.016Z,45.7
2018-07-28T10:15:49.033Z,45.76
2018-07-28T10:16:48.912Z,45.96
2018-07-28T10:17:49.085Z,45.94
2018-07-28T10:18:48.924Z,46.03
2018-07-28T10:19:48.883Z,46.16
2018-07-28T10:20:49.067Z,46.69
2018-07-28T10:21:49.061Z,46.76
2018-07-28T10:22:49.082Z,46.51
2018-07-28T10:23:48.972Z,46.87
2018-07-28T10:24:48.903Z,46.63
2018-07-28T10:25:49.101Z,47.28
2018-07-28T10:26:48.950Z,47.28
2018-07-28T10:27:48.979Z,47.38
2018-07-28T10:28:48.902Z,47.79
2018-07-28T10:29:49.011Z,47.72
2018-07-28T10:30:49.001Z,47.79
2018-07-28T10:31:48.999Z,47.46
2018-07-28T10:32:48.892Z,47.16
2018-07-28T10:33:48.952Z,47.5
2018-07-28T10:34:49.094Z,47.44
2018-07-28T10:35:48.975Z,47.07
2018-07-28T10:36:49.178Z,47.54
2018-07-28T10:37:49.039Z,47.92
2018-07-28T10:38:49.090Z,47.54
2018-07-28T10:39:49.019Z,47.84
2018-07-28T10:40:48.998Z,47.55
2018-07-28T10:41:49.001Z,47.75
2018-07-28T10:42:49.026Z,47.56
2018-07-28T10:43:48.902Z,47.86
2018-07-28T10:44:49.043Z,48.22
2018-07-28T10:45:48.917Z,48.71
2018-07-28T10:46:48.973Z,48.42
2018-07-28T10:47:49.041Z,47.07
2018-07-28T10:48:49.018Z,47.38
2018-07-28T10:49:48.984Z,46.88
2018-07-28T10:50:49.038Z,47.05
2018-07-28T10:51:49.337Z,47.03
2018-07-28T10:52:49.040Z,46.93
2018-07-28T10:53:49.281Z,46.92
2018-07-28T10:54:49.118Z,46.61
2018-07-28T10:55:49.144Z,47.05
2018-07-28T10:56:48.993Z,47.04
2018-07-28T10:57:48.998Z,47.26
2018-07-28T10:58:48.992Z,47.48
2018-07-28T10:59:48.962Z,47.45
2018-07-28T11:00:48.985Z,47.86
2018-07-28T11:01:48.983Z,47.28
2018-07-28T11:02:48.815Z,47.62
2018-07-28T11:03:48.890Z,46.93
2018-07-28T11:04:48.993Z,46.78
2018-07-28T11:05:48.920Z,46.96
2018-07-28T11:06:49.104Z,46.93
2018-07-28T11:07:48.947Z,46.05
2018-07-28T11:08:48.909Z,45.71
2018-07-28T11:09:48.916Z,45.85
2018-07-28T11:10:48.952Z,45.86
2018-07-28T11:11:48.985Z,45.67
2018-07-28T11:12:49.073Z,44.57
2018-07-28T11:13:49.033Z,45.17
2018-07-28T11:14:49.017Z,44.44
2018-07-28T11:15:48.983Z,43.79
2018-07-28T11:16:48.926Z,43.1
2018-07-28T11:17:49.006Z,43.35
2018-07-28T11:18:49.166Z,44
2018-07-28T11:19:48.953Z,44.29
2018-07-28T11:20:48.972Z,43.83
2018-07-28T11:21:49.111Z,44.4
2018-07-28T11:22:48.921Z,44.65
2018-07-28T11:23:49.068Z,44.62
2018-07-28T11:24:48.984Z,44.57
2018-07-28T11:25:49.247Z,44.47
2018-07-28T11:26:49.034Z,44.62
2018-07-28T11:27:48.925Z,44.46
2018-07-28T11:28:49.033Z,44.5
2018-07-28T11:29:49.028Z,44.87
2018-07-28T11:30:49.135Z,44.86
2018-07-28T11:31:49.568Z,44.64
2018-07-28T11:32:49.114Z,44.93
2018-07-28T11:33:49.019Z,44.53
2018-07-28T11:34:49.038Z,44.01
2018-07-28T11:35:49.049Z,42.73
2018-07-28T11:36:49.001Z,42.31
2018-07-28T11:37:49.268Z,43.47
2018-07-28T11:38:49.036Z,42.48
2018-07-28T11:39:48.967Z,43.18
2018-07-28T11:40:48.963Z,42.97
2018-07-28T11:41:48.995Z,43.15
2018-07-28T11:42:49.049Z,43.6
2018-07-28T11:43:48.993Z,43.65
2018-07-28T11:44:48.942Z,42.64
2018-07-28T11:45:49.223Z,42.13
2018-07-28T11:46:49.030Z,41.12
2018-07-28T11:47:48.984Z,41.09
2018-07-28T11:48:49.009Z,41.21
2018-07-28T11:49:48.999Z,41.59
2018-07-28T11:50:49.001Z,41.99
2018-07-28T11:51:49.089Z,42.08
2018-07-28T11:52:49.035Z,41.92
2018-07-28T11:53:48.984Z,41.45
2018-07-28T11:54:49.032Z,41.48
2018-07-28T11:55:49.131Z,41.68
2018-07-28T11:56:48.997Z,42.06
2018-07-28T11:57:49.033Z,41.51
2018-07-28T11:58:49.171Z,41.15
2018-07-28T11:59:49.008Z,41.26
2018-07-28T12:00:49.007Z,41.59
2018-07-28T12:01:49.424Z,41.7
2018-07-28T12:02:49.033Z,41.82
2018-07-28T12:03:48.998Z,42.08
2018-07-28T12:04:48.982Z,42.21
2018-07-28T12:05:49.013Z,41.47
2018-07-28T12:06:48.989Z,41.47
2018-07-28T12:07:48.998Z,41.66
2018-07-28T12:08:48.986Z,41.46
2018-07-28T12:09:49.000Z,41.05
2018-07-28T12:10:48.988Z,41.44
2018-07-28T12:11:49.113Z,41.64
2018-07-28T12:12:48.988Z,41.8
2018-07-28T12:13:49.027Z,41.33
2018-07-28T12:14:49.229Z,41.65
2018-07-28T12:15:49.037Z,41.33
2018-07-28T12:16:49.114Z,41.77
2018-07-28T12:17:48.974Z,42.12
2018-07-28T12:18:49.028Z,41.71
2018-07-28T12:19:49.035Z,41.64
2018-07-28T12:20:49.009Z,41.71
2018-07-28T12:21:49.002Z,41.76
2018-07-28T12:22:48.994Z,42.01
2018-07-28T12:23:49.103Z,42.63
2018-07-28T12:24:48.988Z,42.54
2018-07-28T12:25:49.057Z,42.04
2018-07-28T12:26:49.008Z,42.45
2018-07-28T12:27:49.017Z,42.45
2018-07-28T12:28:49.023Z,42.32
2018-07-28T12:29:49.092Z,42.71
2018-07-28T12:30:49.032Z,42.79
2018-07-28T12:31:49.016Z,42.7
2018-07-28T12:32:49.014Z,42.34
2018-07-28T12:33:49.214Z,42.6
2018-07-28T12:34:49.273Z,42.55
2018-07-28T12:35:49.140Z,42.13
2018-07-28T12:36:49.219Z,42.58
2018-07-28T12:37:49.020Z,42.86
2018-07-28T12:38:49.036Z,42.51
2018-07-28T12:39:49.069Z,42.71
2018-07-28T12:40:49.068Z,42.69
2018-07-28T12:41:49.013Z,42.69
2018-07-28T12:42:49.023Z,42.55
2018-07-28T12:43:49.002Z,42.96
2018-07-28T12:44:49.172Z,43.02
2018-07-28T12:45:49.124Z,43.2
2018-07-28T12:46:49.056Z,42.71
2018-07-28T12:47:49.090Z,42.86
2018-07-28T12:48:49.010Z,43.23
2018-07-28T12:49:49.120Z,43.4
2018-07-28T12:50:49.082Z,43.52
2018-07-28T12:51:49.075Z,43.62
2018-07-28T12:52:49.048Z,43.7
2018-07-28T12:53:49.053Z,43.64
2018-07-28T12:54:49.163Z,44.1
2018-07-28T12:55:49.046Z,44.34